createdAt,value
2023-01-02T00:03:19.401Z,11.43
2023-01-02T00:08:21.564Z,17.13
2023-01-02T00:13:23.801Z,13.00
2023-01-02T00:18:25.927Z,13.13
2023-01-02T00:28:30.210Z,9.93
2023-01-02T00:33:32.198Z,16.08
2023-01-02T00:38:37.474Z,14.05
2023-01-02T00:43:40.401Z,17.55
2023-01-02T00:48:42.482Z,20.20
2023-01-02T00:58:46.972Z,8.38
2023-01-02T01:03:48.983Z,15.50
2023-01-02T01:08:51.005Z,13.20
2023-01-02T01:13:53.192Z,11.70
2023-01-02T01:23:58.092Z,14.05
2023-01-02T01:29:00.192Z,18.85
2023-01-02T01:34:02.183Z,15.18
2023-01-02T01:39:04.251Z,9.40
2023-01-02T01:44:40.320Z,19.13
2023-01-02T01:49:42.550Z,11.95
2023-01-02T01:54:55.178Z,18.77
2023-01-02T01:59:58.997Z,16.35
2023-01-02T02:05:05.636Z,13.40
2023-01-02T02:10:13.028Z,16.15
2023-01-02T02:15:20.942Z,7.65
2023-01-02T02:20:53.583Z,11.23
2023-01-02T02:26:20.485Z,13.35
2023-01-02T02:31:55.547Z,14.15
2023-01-02T02:37:18.383Z,17.00
2023-01-02T02:42:50.105Z,17.90
2023-01-02T02:48:01.635Z,14.48
2023-01-02T02:53:30.284Z,17.90
2023-01-02T02:58:34.753Z,18.70
2023-01-02T03:03:36.785Z,14.13
2023-01-02T03:08:38.739Z,15.68
2023-01-02T03:14:06.761Z,14.73
2023-01-02T03:19:23.472Z,16.42
2023-01-02T03:24:28.056Z,15.23
2023-01-02T03:30:07.911Z,15.65
2023-01-02T03:35:15.726Z,18.77
2023-01-02T03:40:26.517Z,15.50
2023-01-02T03:45:35.810Z,18.63
2023-01-02T03:51:02.603Z,17.77
2023-01-02T03:56:22.318Z,18.33
2023-01-02T04:01:49.999Z,15.52
2023-01-02T04:06:58.890Z,16.35
2023-01-02T04:12:07.533Z,16.98
2023-01-02T04:17:10.985Z,19.90
2023-01-02T04:22:30.557Z,18.35
2023-01-02T04:27:37.015Z,21.92
2023-01-02T04:32:42.459Z,20.13
2023-01-02T04:37:45.256Z,20.60
2023-01-02T04:42:47.302Z,26.33
2023-01-02T04:47:50.117Z,16.65
2023-01-02T04:52:52.061Z,23.05
2023-01-02T04:57:54.080Z,14.68
2023-01-02T05:02:56.476Z,15.55
2023-01-02T05:07:59.650Z,13.90
2023-01-02T05:13:01.744Z,17.27
2023-01-02T05:18:03.840Z,16.38
2023-01-02T05:23:24.427Z,19.45
2023-01-02T05:28:26.429Z,15.10
2023-01-02T05:33:28.461Z,18.30
2023-01-02T05:38:32.373Z,17.02
2023-01-02T05:43:36.981Z,18.40
2023-01-02T05:48:39.741Z,16.42
2023-01-02T05:53:41.996Z,15.55
2023-01-02T05:58:46.348Z,12.93
2023-01-02T06:03:50.159Z,15.77
2023-01-02T06:08:52.404Z,16.05
2023-01-02T06:13:55.344Z,20.38
2023-01-02T06:18:57.736Z,20.10
2023-01-02T06:24:00.228Z,11.55
2023-01-02T06:29:02.883Z,15.35
2023-01-02T06:34:04.913Z,10.32
2023-01-02T06:39:06.939Z,3.70
2023-01-02T06:44:13.114Z,8.18
2023-01-02T06:49:15.095Z,5.20
2023-01-02T06:54:17.088Z,13.60
2023-01-02T06:59:19.044Z,14.40
2023-01-02T07:04:21.156Z,12.73
2023-01-02T07:09:23.122Z,13.35
2023-01-02T07:14:25.427Z,8.77
2023-01-02T07:19:27.451Z,10.18
2023-01-02T07:24:29.430Z,10.93
2023-01-02T07:29:31.410Z,12.25
2023-01-02T07:34:33.430Z,7.47
2023-01-02T07:39:35.476Z,7.50
2023-01-02T07:44:37.448Z,8.48
2023-01-02T07:49:39.500Z,6.47
2023-01-02T07:54:41.524Z,5.80
2023-01-02T07:59:45.299Z,8.43
2023-01-02T08:04:47.293Z,10.13
2023-01-02T08:09:49.663Z,10.15
2023-01-02T08:19:53.479Z,10.07
2023-01-02T08:24:55.496Z,9.10
2023-01-02T08:29:57.558Z,8.30
2023-01-02T08:34:59.609Z,7.03
2023-01-02T08:40:01.695Z,8.57
2023-01-02T08:45:04.063Z,9.13
2023-01-02T08:50:06.350Z,7.50
2023-01-02T09:00:11.316Z,7.03
2023-01-02T09:05:13.407Z,6.60
2023-01-02T09:10:16.910Z,9.68
2023-01-02T09:15:19.057Z,11.55
2023-01-02T09:20:21.357Z,9.32
2023-01-02T09:25:24.607Z,10.20
2023-01-02T09:30:26.821Z,7.13
2023-01-02T09:35:28.943Z,9.65
2023-01-02T09:40:32.546Z,8.18
2023-01-02T09:45:45.367Z,7.32
2023-01-02T09:50:50.181Z,11.02
2023-01-02T09:56:07.231Z,13.57
2023-01-02T10:01:50.683Z,10.85
2023-01-02T10:07:19.920Z,10.98
2023-01-02T10:12:59.031Z,9.65
2023-01-02T10:18:14.212Z,14.00
2023-01-02T10:23:28.469Z,6.72
2023-01-02T10:28:48.410Z,11.50
2023-01-02T10:39:04.546Z,8.73
2023-01-02T10:49:13.047Z,10.07
2023-01-02T10:54:15.114Z,8.52
2023-01-02T10:59:26.395Z,9.25
2023-01-02T11:04:30.997Z,10.38
2023-01-02T11:09:36.181Z,9.75
2023-01-02T11:14:38.607Z,8.00
2023-01-02T11:19:46.745Z,6.22
2023-01-02T11:25:00.725Z,6.32
2023-01-02T11:30:09.972Z,5.68
2023-01-02T11:35:36.820Z,11.02
2023-01-02T11:40:38.889Z,6.53
2023-01-02T11:45:41.548Z,6.47
2023-01-02T11:50:45.110Z,6.53
2023-01-02T11:55:54.178Z,8.32
2023-01-02T12:01:17.697Z,6.57
2023-01-02T12:06:21.233Z,4.53
2023-01-02T12:12:02.326Z,7.65
2023-01-02T12:17:21.719Z,9.98
2023-01-02T12:23:05.534Z,6.85
2023-01-02T12:28:42.763Z,6.20
2023-01-02T12:34:08.669Z,3.10
2023-01-02T12:44:35.202Z,5.82
2023-01-02T12:50:01.629Z,4.80
2023-01-02T12:55:24.341Z,1.92
2023-01-02T13:00:52.548Z,8.00
2023-01-02T13:06:45.477Z,8.02
2023-01-02T13:11:47.123Z,4.38
2023-01-02T13:17:12.064Z,5.47
2023-01-02T13:22:32.482Z,3.72
2023-01-02T13:27:34.695Z,6.28
2023-01-02T13:32:36.825Z,5.72
2023-01-02T13:37:43.480Z,8.68
2023-01-02T13:42:59.790Z,7.80
2023-01-02T13:48:05.148Z,5.07
2023-01-02T13:53:09.832Z,5.90
2023-01-02T13:58:16.067Z,6.65
2023-01-02T14:03:20.999Z,6.28
2023-01-02T14:08:27.417Z,8.25
2023-01-02T14:13:37.044Z,7.90
2023-01-02T14:18:44.383Z,3.08
2023-01-02T14:24:17.560Z,5.30
2023-01-02T14:29:17.116Z,5.72
2023-01-02T14:34:25.039Z,7.40
2023-01-02T14:39:34.116Z,4.32
2023-01-02T14:44:46.389Z,5.88
2023-01-02T14:49:59.482Z,9.88
2023-01-02T14:55:26.293Z,7.03
2023-01-02T15:00:39.003Z,8.30
2023-01-02T15:05:49.071Z,7.85
2023-01-02T15:11:20.116Z,10.10
2023-01-02T15:16:24.858Z,11.98
2023-01-02T15:21:29.969Z,10.68
2023-01-02T15:26:37.047Z,8.23
2023-01-02T15:31:40.086Z,8.70
2023-01-02T15:36:43.084Z,10.38
2023-01-02T15:41:54.835Z,8.70
2023-01-02T15:46:58.393Z,8.52
2023-01-02T15:52:00.790Z,10.32
2023-01-02T15:57:15.111Z,11.57
2023-01-02T16:02:41.610Z,9.38
2023-01-02T16:07:51.172Z,4.95
2023-01-02T16:12:57.306Z,9.43
2023-01-02T16:17:59.352Z,9.13
2023-01-02T16:23:14.388Z,11.02
2023-01-02T16:28:35.464Z,11.00
2023-01-02T16:33:42.114Z,8.13
2023-01-02T16:38:48.798Z,10.48
2023-01-02T16:43:50.857Z,8.40
2023-01-02T16:48:53.178Z,13.02
2023-01-02T16:53:55.154Z,13.27
2023-01-02T17:03:59.317Z,11.95
2023-01-02T17:09:01.399Z,8.88
2023-01-02T17:14:03.951Z,10.20
2023-01-02T17:19:06.165Z,9.48
2023-01-02T17:24:08.294Z,9.70
2023-01-02T17:29:10.610Z,11.38
2023-01-02T17:34:13.020Z,15.23
2023-01-02T17:39:15.287Z,8.23
2023-01-02T17:44:20.138Z,10.05
2023-01-02T17:49:22.529Z,10.48
2023-01-02T17:54:24.825Z,14.73
2023-01-02T17:59:27.275Z,13.70
2023-01-02T18:04:29.683Z,6.95
2023-01-02T18:09:32.476Z,10.05
2023-01-02T18:14:35.289Z,10.05
2023-01-02T18:19:38.342Z,10.88
2023-01-02T18:24:42.313Z,7.07
2023-01-02T18:29:45.690Z,8.18
2023-01-02T18:34:49.269Z,7.25
2023-01-02T18:39:55.332Z,6.30
2023-01-02T18:45:00.376Z,17.38
2023-01-02T18:50:24.553Z,14.18
2023-01-02T18:55:29.367Z,20.60
2023-01-02T19:00:34.908Z,12.07
2023-01-02T19:05:40.661Z,12.52
2023-01-02T19:10:53.497Z,8.00
2023-01-02T19:16:11.536Z,10.32
2023-01-02T19:21:18.961Z,11.65
2023-01-02T19:26:33.152Z,9.57
2023-01-02T19:36:54.248Z,15.95
2023-01-02T19:42:15.477Z,9.50
2023-01-02T19:47:18.573Z,10.27
2023-01-02T19:52:23.298Z,11.02
2023-01-02T19:57:26.491Z,14.82
2023-01-02T20:02:29.680Z,9.43
2023-01-02T20:07:32.883Z,13.70
2023-01-02T20:12:40.669Z,21.20
2023-01-02T20:17:43.489Z,17.35
2023-01-02T20:22:46.904Z,14.63
2023-01-02T20:27:49.668Z,16.05
2023-01-02T20:32:54.921Z,9.77
2023-01-02T20:37:58.974Z,18.42
2023-01-02T20:43:02.025Z,10.40
2023-01-02T20:48:05.380Z,12.98
2023-01-02T20:53:08.315Z,11.48
2023-01-02T20:58:11.349Z,9.32
2023-01-02T21:03:14.915Z,11.13
2023-01-02T21:08:19.381Z,10.80
2023-01-02T21:13:22.583Z,8.27
2023-01-02T21:18:27.995Z,16.08
2023-01-02T21:23:32.146Z,13.23
2023-01-02T21:28:35.036Z,14.32
2023-01-02T21:33:37.575Z,13.88
2023-01-02T21:38:40.178Z,9.15
2023-01-02T21:43:42.139Z,14.25
2023-01-02T21:48:45.089Z,14.77
2023-01-02T21:53:47.216Z,12.45
2023-01-02T21:58:49.358Z,9.98
2023-01-02T22:03:51.369Z,13.85
2023-01-02T22:08:53.436Z,7.55
2023-01-02T22:13:55.457Z,11.18
2023-01-02T22:18:57.574Z,12.35
2023-01-02T22:23:59.694Z,8.82
2023-01-02T22:29:01.789Z,10.05
2023-01-02T22:34:04.948Z,15.00
2023-01-02T22:39:27.673Z,11.30
2023-01-02T22:44:31.227Z,13.35
2023-01-02T22:49:36.180Z,13.98
2023-01-02T22:54:38.682Z,6.80
2023-01-02T22:59:41.931Z,11.25
2023-01-02T23:04:44.671Z,5.97
2023-01-02T23:09:47.937Z,7.85
2023-01-02T23:14:50.226Z,7.97
2023-01-02T23:24:54.194Z,8.80
2023-01-02T23:29:56.232Z,8.13
2023-01-02T23:34:58.288Z,8.77
2023-01-02T23:40:00.355Z,8.48
2023-01-02T23:45:02.879Z,8.23
2023-01-02T23:50:06.919Z,6.68
2023-01-02T23:55:09.533Z,11.60
